Flugplatz Itzehoe/Hungriger Wolf

Für EDHF sind keine METAR/TAF Berichte vorhanden.
Es werden die Flugwettermeldungen vom Flugplatz Hohn Airport in 35 km Entfernung angezeigt.

Bericht für ETNH

vom 23.02. um 23:20 UTC

Wind 22 kt aus 270°

Sichtweite 10 km oder mehr

aufgebrochene Bewölkung in 3200 ft

Temperatur 6.0°C

Taupunkt 2.0°C

Luftfeuchtigkeit 75%

Luftdruck 1011 hPa

ETNH 232320Z 27022KT 9999 BKN032 06/02 Q1011 BLU

Prognose für ETNH

vom 23.02. um 00:00 UTC

Zwischen 00:00 UTC und 00:00 UTC zeitweise

Wind 15 kt aus 270° in Böen 33 kt

Sichtweite 10 km oder mehr

keine signifikanten Wettererscheinungen

aufgelockert bewölkt in 3500 ft


Zwischen 00:00 UTC und 00:00 UTC

Wind 15 kt aus 270° in Böen 25 kt

Sichtweite 10 km oder mehr

keine signifikanten Wettererscheinungen

aufgelockert bewölkt in 2000 ft

aufgebrochene Bewölkung in 3500 ft


Zwischen 00:00 und 00:00 UTC übergehend zu

Wind 10 kt aus 240°

Sichtweite 10 km oder mehr

keine signifikanten Wettererscheinungen

aufgelockert bewölkt in 1500 ft

aufgebrochene Bewölkung in 2200 ft

TAF ETNH 232300Z 2400/2412 27015G25KT 9999 NSW SCT020 BKN035 TEMPO 2400/2403 27015G33KT 9999 NSW SCT035 BECMG 2404/2406 24010KT 9999 NSW SCT015 BKN022 BY ETGL
Impressum